createdAt,value
2023-06-10T00:00:52.525Z,33.07
2023-06-10T00:03:20.869Z,31.80
2023-06-10T00:05:48.192Z,31.30
2023-06-10T00:08:17.319Z,35.13
2023-06-10T00:10:44.899Z,32.50
2023-06-10T00:13:12.972Z,34.10
2023-06-10T00:15:42.049Z,32.80
2023-06-10T00:18:21.189Z,33.30
2023-06-10T00:20:51.587Z,32.03
2023-06-10T00:23:44.974Z,31.87
2023-06-10T00:26:20.949Z,32.80
2023-06-10T00:28:49.186Z,30.50
2023-06-10T00:31:22.543Z,32.77
2023-06-10T00:33:50.379Z,29.43
2023-06-10T00:36:17.941Z,32.77
2023-06-10T00:38:46.079Z,33.50
2023-06-10T00:41:14.071Z,33.20
2023-06-10T00:43:42.665Z,33.30
2023-06-10T00:46:10.975Z,28.57
2023-06-10T00:48:47.164Z,30.93
2023-06-10T00:51:17.434Z,30.13
2023-06-10T00:53:45.618Z,29.87
2023-06-10T00:56:19.258Z,29.67
2023-06-10T00:58:47.418Z,32.20
2023-06-10T01:01:17.488Z,31.17
2023-06-10T01:03:48.324Z,31.23
2023-06-10T01:06:25.826Z,32.33
2023-06-10T01:09:07.043Z,28.93
2023-06-10T01:11:43.035Z,28.97
2023-06-10T01:14:12.566Z,28.83
2023-06-10T01:16:42.667Z,29.17
2023-06-10T01:19:13.203Z,29.60
2023-06-10T01:21:47.071Z,29.00
2023-06-10T01:24:16.835Z,27.73
2023-06-10T01:26:48.181Z,27.83
2023-06-10T01:29:36.149Z,29.03
2023-06-10T01:32:15.850Z,27.73
2023-06-10T01:34:49.940Z,27.80
2023-06-10T01:37:20.132Z,28.17
2023-06-10T01:39:49.548Z,28.17
2023-06-10T01:42:20.879Z,27.77
2023-06-10T01:44:49.628Z,28.07
2023-06-10T01:47:18.778Z,28.33
2023-06-10T01:49:49.016Z,26.90
2023-06-10T01:52:16.835Z,29.30
2023-06-10T01:54:44.855Z,27.30
2023-06-10T01:57:13.519Z,26.30
2023-06-10T01:59:41.461Z,26.27
2023-06-10T02:02:09.279Z,26.30
2023-06-10T02:04:47.660Z,27.03
2023-06-10T02:07:14.942Z,27.13
2023-06-10T02:09:47.059Z,29.00
2023-06-10T02:12:16.694Z,30.80
2023-06-10T02:14:47.302Z,27.00
2023-06-10T02:17:16.202Z,27.40
2023-06-10T02:19:44.109Z,28.57
2023-06-10T02:22:11.939Z,27.90
2023-06-10T02:24:40.505Z,26.80
2023-06-10T02:27:08.356Z,27.23
2023-06-10T02:29:36.602Z,26.87
2023-06-10T02:32:05.001Z,26.67
2023-06-10T02:35:10.391Z,26.10
2023-06-10T02:37:38.602Z,25.00
2023-06-10T02:40:08.680Z,26.50
2023-06-10T02:42:36.406Z,24.67
2023-06-10T02:45:23.458Z,24.33
2023-06-10T02:47:54.932Z,25.90
2023-06-10T02:50:23.475Z,24.37
2023-06-10T02:52:53.609Z,25.97
2023-06-10T02:55:21.969Z,26.70
2023-06-10T02:57:50.553Z,26.23
2023-06-10T03:00:19.881Z,24.93
2023-06-10T03:11:20.041Z,26.10
2023-06-10T03:13:54.455Z,26.47
2023-06-10T03:16:25.649Z,26.57
2023-06-10T03:18:54.105Z,26.33
2023-06-10T03:21:30.628Z,23.30
2023-06-10T03:24:10.016Z,24.07
2023-06-10T03:26:42.562Z,25.03
2023-06-10T03:29:12.956Z,26.80
2023-06-10T03:31:40.946Z,22.80
2023-06-10T03:34:10.639Z,24.17
2023-06-10T03:36:46.355Z,25.30
2023-06-10T03:39:18.790Z,24.53
2023-06-10T03:41:46.869Z,24.27
2023-06-10T03:44:20.434Z,23.43
2023-06-10T03:49:31.188Z,22.30
2023-06-10T03:51:59.938Z,22.40
2023-06-10T03:54:29.093Z,23.90
2023-06-10T03:57:00.639Z,23.23
2023-06-10T03:59:30.961Z,24.37
2023-06-10T04:02:01.756Z,23.43
2023-06-10T04:04:35.092Z,21.70
2023-06-10T04:07:18.707Z,23.20
2023-06-10T04:09:53.343Z,23.27
2023-06-10T04:12:37.551Z,23.23
2023-06-10T04:15:10.959Z,24.30
2023-06-10T04:17:41.966Z,24.07
2023-06-10T04:20:23.049Z,23.13
2023-06-10T04:25:30.442Z,23.53
2023-06-10T04:28:02.907Z,22.27
2023-06-10T04:30:33.161Z,22.33
2023-06-10T04:33:04.502Z,21.90
2023-06-10T04:35:37.329Z,24.23
2023-06-10T04:38:11.651Z,21.57
2023-06-10T04:40:50.301Z,21.47
2023-06-10T04:43:26.090Z,21.97
2023-06-10T04:46:07.111Z,23.53
2023-06-10T04:51:42.045Z,22.93
2023-06-10T04:54:31.583Z,20.80
2023-06-10T04:56:59.130Z,22.77
2023-06-10T04:59:33.574Z,22.27
2023-06-10T05:02:05.430Z,22.80
2023-06-10T05:04:40.603Z,22.93
2023-06-10T05:07:08.354Z,21.00
2023-06-10T05:09:36.069Z,20.80
2023-06-10T05:12:07.795Z,21.40
2023-06-10T05:14:36.438Z,21.13
2023-06-10T05:17:07.580Z,22.17
2023-06-10T05:19:40.445Z,22.40
2023-06-10T05:22:08.002Z,20.97
2023-06-10T05:24:37.469Z,21.93
2023-06-10T05:27:08.672Z,19.73
2023-06-10T05:29:50.650Z,19.90
2023-06-10T05:32:25.120Z,19.73
2023-06-10T05:34:55.682Z,19.47
2023-06-10T05:37:25.260Z,18.50
2023-06-10T05:45:36.557Z,17.57
2023-06-10T05:48:11.313Z,17.87
2023-06-10T05:51:12.302Z,16.87
2023-06-10T05:53:50.595Z,16.73
2023-06-10T05:56:23.641Z,17.70
2023-06-10T05:58:51.090Z,14.77
2023-06-10T06:01:30.623Z,16.60
2023-06-10T06:03:58.831Z,15.60
2023-06-10T06:06:26.200Z,16.73
2023-06-10T06:08:53.931Z,15.23
2023-06-10T06:11:27.819Z,16.57
2023-06-10T06:13:58.191Z,16.57
2023-06-10T06:16:25.938Z,15.10
2023-06-10T06:18:53.340Z,17.87
2023-06-10T06:21:28.754Z,16.10
2023-06-10T06:24:00.277Z,15.00
2023-06-10T06:26:28.244Z,16.00
2023-06-10T06:29:04.595Z,14.13
2023-06-10T06:31:40.284Z,16.37
2023-06-10T06:34:36.151Z,16.90
2023-06-10T06:39:51.820Z,14.40
2023-06-10T06:42:34.205Z,15.97
2023-06-10T06:45:01.551Z,16.33
2023-06-10T06:47:34.718Z,15.43
2023-06-10T06:50:05.554Z,16.77
2023-06-10T06:55:20.402Z,14.60
2023-06-10T06:57:50.445Z,15.97
2023-06-10T07:00:20.754Z,14.63
2023-06-10T07:02:58.017Z,16.60
2023-06-10T07:05:36.051Z,15.30
2023-06-10T07:08:05.181Z,16.77
2023-06-10T07:10:33.639Z,17.07
2023-06-10T07:13:03.003Z,17.47
2023-06-10T07:15:52.473Z,16.20
2023-06-10T07:18:19.802Z,16.80
2023-06-10T07:20:47.409Z,16.53
2023-06-10T07:23:14.795Z,15.30
2023-06-10T07:26:03.993Z,15.90
2023-06-10T07:28:38.789Z,16.30
2023-06-10T07:31:13.623Z,15.80
2023-06-10T07:33:50.922Z,17.30
2023-06-10T07:36:40.357Z,15.90
2023-06-10T07:39:15.747Z,14.00
2023-06-10T07:41:43.370Z,14.77
2023-06-10T07:44:10.840Z,14.60
2023-06-10T07:46:41.737Z,14.50
2023-06-10T07:49:18.068Z,14.03
2023-06-10T07:54:34.362Z,15.10
2023-06-10T07:57:04.260Z,14.10
2023-06-10T07:59:31.489Z,13.43
2023-06-10T08:01:58.744Z,14.17
2023-06-10T08:04:48.917Z,14.23
2023-06-10T08:07:14.363Z,12.73
2023-06-10T08:09:41.942Z,12.93
2023-06-10T08:12:09.362Z,14.03
2023-06-10T08:14:48.425Z,11.87
2023-06-10T08:17:15.741Z,13.30
2023-06-10T08:19:48.505Z,12.80
2023-06-10T08:22:29.791Z,12.33
2023-06-10T08:24:57.775Z,12.50
2023-06-10T08:27:31.636Z,12.23
2023-06-10T08:32:41.116Z,12.77
2023-06-10T08:37:54.319Z,10.87
2023-06-10T08:40:29.406Z,9.93
2023-06-10T08:43:08.298Z,10.43
2023-06-10T08:45:46.769Z,9.23
2023-06-10T08:48:14.911Z,9.23
2023-06-10T08:51:02.508Z,10.13
2023-06-10T08:53:32.179Z,9.50
2023-06-10T08:56:04.747Z,10.10
2023-06-10T08:58:38.668Z,10.63
2023-06-10T09:01:06.094Z,11.37
2023-06-10T09:03:35.145Z,9.90
2023-06-10T09:06:02.536Z,8.70
2023-06-10T09:08:29.887Z,10.23
2023-06-10T09:11:01.966Z,10.57
2023-06-10T09:13:35.004Z,10.57
2023-06-10T09:16:03.339Z,11.30
2023-06-10T09:18:30.743Z,10.70
2023-06-10T09:21:00.126Z,10.90
2023-06-10T09:23:28.730Z,10.40
2023-06-10T09:25:59.561Z,10.80
2023-06-10T09:28:29.997Z,10.63
2023-06-10T09:31:04.249Z,8.73
2023-06-10T09:33:34.737Z,10.60
2023-06-10T09:36:03.994Z,9.73
2023-06-10T09:38:32.914Z,11.40
2023-06-10T09:41:02.417Z,8.70
2023-06-10T09:43:46.690Z,10.87
2023-06-10T09:46:20.904Z,10.30
2023-06-10T09:48:49.007Z,11.17
2023-06-10T09:51:21.069Z,11.13
2023-06-10T09:53:53.183Z,12.33
2023-06-10T09:56:20.669Z,12.10
2023-06-10T09:58:48.177Z,11.47
2023-06-10T10:01:18.161Z,10.83
2023-06-10T10:03:49.893Z,10.80
2023-06-10T10:06:19.486Z,10.27
2023-06-10T10:08:48.062Z,10.53
2023-06-10T10:11:18.930Z,11.70
2023-06-10T10:13:55.496Z,12.47
2023-06-10T10:16:49.704Z,13.07
2023-06-10T10:19:25.573Z,14.10
2023-06-10T10:21:55.794Z,14.73
2023-06-10T10:24:26.519Z,15.90
2023-06-10T10:26:57.582Z,14.60
2023-06-10T10:29:37.532Z,14.60
2023-06-10T10:32:05.701Z,14.23
2023-06-10T10:34:40.740Z,13.73
2023-06-10T10:37:07.928Z,11.97
2023-06-10T10:39:38.691Z,12.67
2023-06-10T10:42:10.728Z,12.60
2023-06-10T10:44:40.119Z,13.07
2023-06-10T10:47:10.636Z,11.90
2023-06-10T10:49:40.218Z,11.13
2023-06-10T10:52:13.130Z,10.67
2023-06-10T10:54:44.897Z,10.90
2023-06-10T11:00:25.414Z,9.37
2023-06-10T11:02:58.823Z,10.30
2023-06-10T11:05:49.440Z,10.17
2023-06-10T11:08:19.158Z,9.47
2023-06-10T11:11:04.766Z,8.90
2023-06-10T11:13:38.305Z,10.70
2023-06-10T11:16:06.057Z,9.13
2023-06-10T11:21:36.649Z,10.13
2023-06-10T11:24:22.786Z,9.70
2023-06-10T11:26:57.655Z,8.53
2023-06-10T11:29:28.112Z,9.13
2023-06-10T11:32:01.463Z,8.47
2023-06-10T11:34:29.379Z,9.00
2023-06-10T11:37:07.021Z,7.90
2023-06-10T11:39:41.933Z,8.10
2023-06-10T11:42:12.584Z,8.77
2023-06-10T11:44:40.235Z,8.13
2023-06-10T11:47:10.280Z,8.53
2023-06-10T11:49:37.560Z,8.97
2023-06-10T11:52:07.675Z,8.33
2023-06-10T11:54:39.835Z,8.07
2023-06-10T11:57:10.252Z,7.70
2023-06-10T11:59:39.875Z,8.60
2023-06-10T12:02:08.764Z,8.07
2023-06-10T12:04:36.394Z,7.93
2023-06-10T12:07:06.413Z,8.93
2023-06-10T12:09:48.519Z,7.70
2023-06-10T12:12:16.404Z,7.53
2023-06-10T12:15:00.275Z,6.77
2023-06-10T12:17:45.892Z,7.30
2023-06-10T12:20:34.783Z,7.40
2023-06-10T12:23:11.972Z,7.27
2023-06-10T12:25:40.778Z,8.77
2023-06-10T12:28:12.561Z,10.30
2023-06-10T12:30:44.361Z,11.40
2023-06-10T12:33:40.599Z,11.73
2023-06-10T12:36:25.782Z,10.07
2023-06-10T12:38:54.080Z,10.20
2023-06-10T12:41:23.957Z,8.20
2023-06-10T12:43:51.603Z,7.97
2023-06-10T12:46:21.315Z,8.87
2023-06-10T12:48:56.494Z,8.00
2023-06-10T12:51:24.145Z,7.30
2023-06-10T12:53:51.354Z,6.60
2023-06-10T12:56:18.611Z,7.03
2023-06-10T12:58:48.604Z,7.27
2023-06-10T13:01:18.076Z,7.13
2023-06-10T13:03:47.986Z,7.10
2023-06-10T13:06:21.164Z,7.13
2023-06-10T13:08:49.507Z,7.43
2023-06-10T13:11:20.154Z,7.37
2023-06-10T13:13:48.730Z,7.20
2023-06-10T13:16:19.908Z,6.20
2023-06-10T13:18:55.734Z,6.50
2023-06-10T13:21:27.777Z,7.53
2023-06-10T13:23:56.724Z,6.93
2023-06-10T13:26:27.159Z,5.47
2023-06-10T13:29:03.255Z,6.90
2023-06-10T13:31:32.988Z,5.77
2023-06-10T13:34:10.429Z,6.70
2023-06-10T13:36:43.894Z,5.30
2023-06-10T13:39:13.373Z,5.83
2023-06-10T13:41:40.733Z,6.30
2023-06-10T13:44:16.794Z,6.47
2023-06-10T13:46:50.253Z,5.57
2023-06-10T13:49:18.480Z,5.90
2023-06-10T13:51:52.574Z,5.03
2023-06-10T13:54:20.293Z,5.23
2023-06-10T13:56:50.065Z,6.17
2023-06-10T13:59:50.636Z,5.93
2023-06-10T14:02:21.039Z,5.93
2023-06-10T14:04:51.563Z,5.77
2023-06-10T14:07:24.630Z,5.90
2023-06-10T14:09:52.457Z,5.50
2023-06-10T14:12:19.639Z,5.20
2023-06-10T14:14:53.339Z,5.30
2023-06-10T14:17:29.009Z,6.17
2023-06-10T14:19:59.092Z,5.67
2023-06-10T14:22:26.570Z,4.80
2023-06-10T14:24:56.434Z,4.63
2023-06-10T14:27:28.419Z,4.83
2023-06-10T14:29:56.214Z,5.40
2023-06-10T14:32:32.352Z,5.63
2023-06-10T14:35:00.077Z,5.13
2023-06-10T14:37:31.796Z,4.90
2023-06-10T14:40:02.544Z,5.30
2023-06-10T14:42:30.412Z,5.50
2023-06-10T14:44:57.631Z,6.20
2023-06-10T14:47:27.798Z,5.60
2023-06-10T14:49:55.770Z,6.20
2023-06-10T14:52:22.956Z,5.40
2023-06-10T14:54:50.177Z,5.43
2023-06-10T14:57:22.194Z,5.07
2023-06-10T14:59:52.301Z,5.70
2023-06-10T15:02:22.192Z,5.60
2023-06-10T15:04:52.299Z,5.60
2023-06-10T15:07:24.714Z,4.87
2023-06-10T15:09:51.939Z,5.37
2023-06-10T15:12:29.684Z,6.03
2023-06-10T15:14:57.242Z,5.63
2023-06-10T15:17:29.328Z,5.33
2023-06-10T15:19:59.279Z,6.03
2023-06-10T15:22:28.990Z,4.87
2023-06-10T15:24:57.133Z,5.23
2023-06-10T15:27:24.827Z,5.20
2023-06-10T15:29:52.850Z,5.43
2023-06-10T15:32:20.670Z,5.43
2023-06-10T15:34:49.212Z,5.57
2023-06-10T15:37:16.895Z,4.80
2023-06-10T15:39:44.064Z,5.80
2023-06-10T15:42:12.594Z,5.40
2023-06-10T15:44:44.306Z,5.87
2023-06-10T15:47:14.609Z,6.50
2023-06-10T15:49:46.831Z,5.40
2023-06-10T15:52:17.183Z,4.57
2023-06-10T15:54:44.418Z,4.80
2023-06-10T15:57:11.636Z,6.43
2023-06-10T15:59:40.084Z,5.60
2023-06-10T16:02:07.436Z,5.47
2023-06-10T16:04:34.706Z,5.00
2023-06-10T16:07:02.628Z,4.87
2023-06-10T16:09:30.187Z,5.73
2023-06-10T16:11:57.750Z,5.33
2023-06-10T16:14:26.051Z,5.57
2023-06-10T16:16:53.866Z,6.13
2023-06-10T16:19:24.010Z,5.70
2023-06-10T16:21:53.896Z,4.90
2023-06-10T16:24:21.273Z,5.40
2023-06-10T16:27:04.167Z,5.30
2023-06-10T16:29:31.399Z,4.97
2023-06-10T16:32:03.455Z,5.30
2023-06-10T16:34:31.131Z,5.67
2023-06-10T16:36:58.689Z,4.80
2023-06-10T16:39:37.738Z,4.67
2023-06-10T16:42:13.885Z,5.10
2023-06-10T16:44:41.067Z,5.63
2023-06-10T16:47:08.927Z,4.47
2023-06-10T16:49:37.535Z,5.13
2023-06-10T16:52:05.536Z,6.00
2023-06-10T16:54:33.252Z,5.30
2023-06-10T16:57:00.894Z,5.90
2023-06-10T16:59:28.080Z,8.07
2023-06-10T17:02:01.041Z,5.43
2023-06-10T17:04:30.288Z,5.00
2023-06-10T17:06:57.639Z,6.70
2023-06-10T17:09:25.292Z,5.00
2023-06-10T17:11:52.554Z,5.37
2023-06-10T17:14:19.998Z,5.33
2023-06-10T17:16:47.832Z,5.60
2023-06-10T17:19:15.107Z,5.30
2023-06-10T17:21:42.801Z,6.17
2023-06-10T17:24:14.530Z,5.57
2023-06-10T17:26:42.233Z,5.33
2023-06-10T17:29:12.572Z,5.97
2023-06-10T17:31:39.806Z,5.93
2023-06-10T17:34:09.111Z,5.80
2023-06-10T17:36:37.764Z,5.73
2023-06-10T17:39:05.003Z,5.20
2023-06-10T17:41:32.754Z,5.00
2023-06-10T17:44:00.004Z,4.97
2023-06-10T17:46:28.983Z,5.10
2023-06-10T17:48:56.300Z,5.10
2023-06-10T17:51:23.597Z,6.10
2023-06-10T17:53:51.996Z,5.60
2023-06-10T17:56:19.190Z,5.17
2023-06-10T17:58:46.751Z,5.90
2023-06-10T18:01:14.108Z,5.43
2023-06-10T18:03:41.670Z,5.40
2023-06-10T18:06:13.609Z,5.60
2023-06-10T18:08:41.290Z,5.43
2023-06-10T18:11:10.853Z,5.90
2023-06-10T18:13:42.275Z,5.80
2023-06-10T18:16:09.488Z,5.80
2023-06-10T18:18:37.106Z,5.80
2023-06-10T18:21:04.965Z,5.00
2023-06-10T18:23:32.173Z,6.10
2023-06-10T18:25:59.860Z,5.77
2023-06-10T18:28:39.262Z,6.07
2023-06-10T18:31:09.743Z,6.00
2023-06-10T18:33:37.003Z,5.37
2023-06-10T18:36:04.716Z,5.63
2023-06-10T18:38:31.974Z,6.00
2023-06-10T18:40:59.282Z,5.43
2023-06-10T18:43:26.437Z,5.97
2023-06-10T18:45:54.327Z,6.37
2023-06-10T18:48:24.482Z,6.30
2023-06-10T18:50:51.758Z,5.33
2023-06-10T18:53:22.314Z,5.10
2023-06-10T18:55:53.571Z,6.00
2023-06-10T18:58:20.874Z,5.50
2023-06-10T19:00:48.097Z,5.83
2023-06-10T19:03:17.694Z,5.80
2023-06-10T19:05:44.979Z,6.23
2023-06-10T19:08:12.350Z,5.90
2023-06-10T19:10:39.533Z,5.67
2023-06-10T19:13:13.898Z,5.83
2023-06-10T19:15:41.795Z,5.27
2023-06-10T19:18:09.508Z,5.53
2023-06-10T19:20:37.150Z,5.33
2023-06-10T19:23:04.301Z,5.97
2023-06-10T19:25:31.431Z,5.80
2023-06-10T19:27:58.656Z,6.50
2023-06-10T19:30:26.044Z,5.60
2023-06-10T19:32:53.633Z,6.57
2023-06-10T19:35:21.740Z,6.40
2023-06-10T19:37:49.111Z,6.47
2023-06-10T19:40:20.990Z,6.20
2023-06-10T19:42:51.361Z,6.50
2023-06-10T19:45:19.071Z,5.80
2023-06-10T19:47:46.938Z,6.43
2023-06-10T19:50:14.496Z,5.70
2023-06-10T19:52:42.307Z,6.97
2023-06-10T19:55:10.014Z,6.50
2023-06-10T19:57:41.475Z,6.10
2023-06-10T20:00:10.490Z,5.50
2023-06-10T20:03:00.772Z,6.13
2023-06-10T20:05:44.355Z,5.67
2023-06-10T20:08:11.646Z,5.70
2023-06-10T20:10:43.333Z,6.97
2023-06-10T20:13:11.823Z,5.70
2023-06-10T20:15:43.821Z,5.73
2023-06-10T20:18:11.658Z,5.57
2023-06-10T20:20:52.719Z,10.30
2023-06-10T20:23:28.110Z,6.10
2023-06-10T20:25:55.518Z,5.13
2023-06-10T20:28:23.429Z,6.27
2023-06-10T20:30:54.109Z,5.87
2023-06-10T20:33:24.762Z,6.53
2023-06-10T20:35:52.451Z,7.43
2023-06-10T20:38:20.216Z,7.00
2023-06-10T20:40:50.679Z,7.50
2023-06-10T20:43:18.921Z,8.17
2023-06-10T20:45:46.335Z,7.73
2023-06-10T20:48:23.868Z,7.00
2023-06-10T20:50:51.164Z,9.10
2023-06-10T20:53:24.772Z,11.53
2023-06-10T20:56:02.574Z,12.60
2023-06-10T20:58:37.540Z,12.20
2023-06-10T21:01:27.056Z,9.37
2023-06-10T21:03:55.104Z,9.60
2023-06-10T21:06:26.124Z,8.83
2023-06-10T21:08:53.786Z,8.70
2023-06-10T21:11:32.504Z,9.73
2023-06-10T21:14:02.823Z,7.70
2023-06-10T21:16:31.761Z,9.57
2023-06-10T21:18:59.526Z,7.40
2023-06-10T21:21:40.569Z,7.80
2023-06-10T21:24:28.857Z,7.80
2023-06-10T21:26:56.482Z,8.87
2023-06-10T21:29:28.049Z,7.90
2023-06-10T21:31:56.219Z,8.33
2023-06-10T21:34:23.497Z,9.00
2023-06-10T21:36:51.351Z,9.23
2023-06-10T21:39:21.113Z,9.03
2023-06-10T21:41:48.413Z,7.67
2023-06-10T21:44:16.122Z,8.70
2023-06-10T21:46:43.674Z,8.93
2023-06-10T21:49:12.160Z,8.80
2023-06-10T21:51:44.530Z,8.23
2023-06-10T21:54:11.741Z,7.03
2023-06-10T21:56:42.872Z,8.37
2023-06-10T21:59:10.462Z,7.50
2023-06-10T22:01:38.355Z,7.00
2023-06-10T22:04:06.663Z,7.77
2023-06-10T22:06:35.566Z,6.97
2023-06-10T22:09:04.781Z,7.30
2023-06-10T22:11:36.050Z,6.80
2023-06-10T22:14:03.345Z,7.70
2023-06-10T22:16:33.628Z,6.80
2023-06-10T22:19:01.038Z,6.17
2023-06-10T22:21:30.160Z,6.90
2023-06-10T22:23:59.242Z,6.50
2023-06-10T22:26:36.822Z,7.20
2023-06-10T22:29:19.680Z,7.07
2023-06-10T22:31:47.422Z,6.20
2023-06-10T22:34:15.094Z,5.83
2023-06-10T22:36:42.328Z,7.13
2023-06-10T22:39:13.257Z,7.13
2023-06-10T22:41:41.097Z,7.40
2023-06-10T22:44:11.925Z,7.27
2023-06-10T22:46:39.118Z,6.30
2023-06-10T22:49:06.960Z,6.13
2023-06-10T22:51:35.885Z,5.80
2023-06-10T22:54:07.605Z,6.43
2023-06-10T22:56:34.908Z,7.60
2023-06-10T22:59:03.990Z,6.73
2023-06-10T23:01:33.576Z,6.83
2023-06-10T23:04:03.320Z,7.77
2023-06-10T23:06:31.102Z,6.50
2023-06-10T23:08:58.788Z,7.00
2023-06-10T23:11:27.024Z,6.63
2023-06-10T23:13:56.275Z,7.60
2023-06-10T23:16:23.601Z,7.67
2023-06-10T23:18:51.500Z,7.20
2023-06-10T23:21:21.770Z,6.93
2023-06-10T23:23:53.326Z,7.20
2023-06-10T23:26:20.620Z,7.73
2023-06-10T23:28:47.832Z,7.27
2023-06-10T23:31:18.481Z,7.50
2023-06-10T23:33:46.926Z,8.30
2023-06-10T23:36:15.446Z,8.13
2023-06-10T23:38:43.003Z,7.30
2023-06-10T23:41:10.154Z,8.20
2023-06-10T23:43:37.802Z,7.90
2023-06-10T23:46:05.043Z,8.40
2023-06-10T23:48:32.554Z,7.90
2023-06-10T23:51:02.852Z,7.43
2023-06-10T23:53:30.549Z,7.23
2023-06-10T23:55:58.450Z,6.57
2023-06-10T23:58:25.682Z,7.23
